createdAt,value
2023-03-06T00:02:05.232Z,3.72
2023-03-06T00:04:31.577Z,4.35
2023-03-06T00:06:58.291Z,4.25
2023-03-06T00:09:24.604Z,2.70
2023-03-06T00:11:50.955Z,2.40
2023-03-06T00:14:17.329Z,3.15
2023-03-06T00:16:44.383Z,5.28
2023-03-06T00:19:10.864Z,4.40
2023-03-06T00:21:37.169Z,2.75
2023-03-06T00:24:03.580Z,2.55
2023-03-06T00:26:33.844Z,8.35
2023-03-06T00:29:00.195Z,3.25
2023-03-06T00:31:27.955Z,3.67
2023-03-06T00:33:54.292Z,3.40
2023-03-06T00:36:20.785Z,2.72
2023-03-06T00:38:47.130Z,3.22
2023-03-06T00:41:13.536Z,4.80
2023-03-06T00:43:39.915Z,3.40
2023-03-06T00:46:07.722Z,3.45
2023-03-06T00:48:34.135Z,7.43
2023-03-06T00:51:00.983Z,5.80
2023-03-06T00:53:27.313Z,6.68
2023-03-06T00:55:53.652Z,6.63
2023-03-06T00:58:20.116Z,11.95
2023-03-06T01:00:46.540Z,5.32
2023-03-06T01:03:12.968Z,3.53
2023-03-06T01:05:39.687Z,3.22
2023-03-06T01:08:06.512Z,2.45
2023-03-06T01:10:33.623Z,3.20
2023-03-06T01:13:00.001Z,5.28
2023-03-06T01:15:26.319Z,2.15
2023-03-06T01:17:54.420Z,4.60
2023-03-06T01:20:21.588Z,5.43
2023-03-06T01:22:48.038Z,3.00
2023-03-06T01:25:15.256Z,3.22
2023-03-06T01:27:42.364Z,5.32
2023-03-06T01:30:10.707Z,8.80
2023-03-06T01:32:38.364Z,3.97
2023-03-06T01:35:05.508Z,3.83
2023-03-06T01:37:32.329Z,5.10
2023-03-06T01:39:58.683Z,7.85
2023-03-06T01:42:25.099Z,7.05
2023-03-06T01:44:57.954Z,12.40
2023-03-06T01:49:51.414Z,4.70
2023-03-06T01:52:19.886Z,4.78
2023-03-06T01:54:54.717Z,6.72
2023-03-06T01:57:29.457Z,8.90
2023-03-06T01:59:59.341Z,8.57
2023-03-06T02:02:25.983Z,6.38
2023-03-06T02:04:52.496Z,8.20
2023-03-06T02:07:21.074Z,9.30
2023-03-06T02:09:47.486Z,6.43
2023-03-06T02:12:17.176Z,15.65
2023-03-06T02:14:46.392Z,6.32
2023-03-06T02:17:13.863Z,7.95
2023-03-06T02:19:40.198Z,6.25
2023-03-06T02:22:07.199Z,5.93
2023-03-06T02:24:33.614Z,10.98
2023-03-06T02:27:00.966Z,6.75
2023-03-06T02:29:28.768Z,12.68
2023-03-06T02:31:58.850Z,6.95
2023-03-06T02:34:25.478Z,7.38
2023-03-06T02:36:53.128Z,5.85
2023-03-06T02:39:22.389Z,7.47
2023-03-06T02:41:48.949Z,9.90
2023-03-06T02:44:16.739Z,11.35
2023-03-06T02:46:43.136Z,15.02
2023-03-06T02:49:09.713Z,8.05
2023-03-06T02:51:36.155Z,12.80
2023-03-06T02:54:02.628Z,8.82
2023-03-06T02:56:31.774Z,6.97
2023-03-06T02:58:59.003Z,9.05
2023-03-06T03:01:25.469Z,8.70
2023-03-06T03:03:52.090Z,9.90
2023-03-06T03:06:20.643Z,8.07
2023-03-06T03:08:48.287Z,11.30
2023-03-06T03:11:14.696Z,7.93
2023-03-06T03:13:43.703Z,8.60
2023-03-06T03:16:15.849Z,9.80
2023-03-06T03:18:44.458Z,8.90
2023-03-06T03:21:12.759Z,7.78
2023-03-06T03:23:39.315Z,10.27
2023-03-06T03:26:06.815Z,8.40
2023-03-06T03:28:34.293Z,11.70
2023-03-06T03:31:04.712Z,9.30
2023-03-06T03:33:31.241Z,10.60
2023-03-06T03:35:58.224Z,11.48
2023-03-06T03:38:31.408Z,8.98
2023-03-06T03:40:58.001Z,12.13
2023-03-06T03:43:24.472Z,8.45
2023-03-06T03:45:52.558Z,7.70
2023-03-06T03:48:19.355Z,10.98
2023-03-06T03:50:45.785Z,7.68
2023-03-06T03:53:13.205Z,9.90
2023-03-06T03:55:40.270Z,8.68
2023-03-06T03:58:06.759Z,7.97
2023-03-06T04:00:33.682Z,5.55
2023-03-06T04:03:10.104Z,11.13
2023-03-06T04:05:44.932Z,8.52
2023-03-06T04:08:14.160Z,9.32
2023-03-06T04:10:43.371Z,8.18
2023-03-06T04:13:11.606Z,8.55
2023-03-06T04:15:41.806Z,12.02
2023-03-06T04:18:08.774Z,8.15
2023-03-06T04:20:35.646Z,8.95
2023-03-06T04:23:02.679Z,12.05
2023-03-06T04:25:29.195Z,7.97
2023-03-06T04:27:55.737Z,8.80
2023-03-06T04:30:24.698Z,8.32
2023-03-06T04:32:51.384Z,7.93
2023-03-06T04:35:18.423Z,10.60
2023-03-06T04:37:54.342Z,6.57
2023-03-06T04:40:23.799Z,11.43
2023-03-06T04:42:50.483Z,7.28
2023-03-06T04:45:16.862Z,7.47
2023-03-06T04:47:43.331Z,9.15
2023-03-06T04:50:10.319Z,6.30
2023-03-06T04:52:36.648Z,11.38
2023-03-06T04:55:08.495Z,7.03
2023-03-06T04:57:36.708Z,5.10
2023-03-06T05:00:04.643Z,8.20
2023-03-06T05:02:31.001Z,6.53
2023-03-06T05:04:57.424Z,11.65
2023-03-06T05:07:23.773Z,10.40
2023-03-06T05:09:50.151Z,7.13
2023-03-06T05:12:16.710Z,6.28
2023-03-06T05:14:47.997Z,11.88
2023-03-06T05:17:14.477Z,9.20
2023-03-06T05:19:40.829Z,4.55
2023-03-06T05:22:07.226Z,5.78
2023-03-06T05:24:33.594Z,5.82
2023-03-06T05:27:00.087Z,5.22
2023-03-06T05:29:26.483Z,7.68
2023-03-06T05:31:53.099Z,5.28
2023-03-06T05:34:21.255Z,4.88
2023-03-06T05:36:47.733Z,4.68
2023-03-06T05:39:14.160Z,7.18
2023-03-06T05:41:40.532Z,6.43
2023-03-06T05:44:06.965Z,4.25
2023-03-06T05:46:33.369Z,5.63
2023-03-06T05:48:59.804Z,4.05
2023-03-06T05:51:26.705Z,4.97
2023-03-06T05:53:53.043Z,6.20
2023-03-06T05:56:19.477Z,5.15
2023-03-06T05:58:46.519Z,4.82
2023-03-06T06:01:15.136Z,5.70
2023-03-06T06:03:42.088Z,5.60
2023-03-06T06:06:09.697Z,4.30
2023-03-06T06:08:36.147Z,7.40
2023-03-06T06:11:06.638Z,4.18
2023-03-06T06:13:33.315Z,4.03
2023-03-06T06:15:59.940Z,5.95
2023-03-06T06:18:26.427Z,3.72
2023-03-06T06:20:54.903Z,3.85
2023-03-06T06:23:22.186Z,3.50
2023-03-06T06:25:48.529Z,4.00
2023-03-06T06:28:14.868Z,3.78
2023-03-06T06:30:41.455Z,6.47
2023-03-06T06:33:07.862Z,2.80
2023-03-06T06:35:37.421Z,3.47
2023-03-06T06:38:03.906Z,5.05
2023-03-06T06:40:32.430Z,6.60
2023-03-06T06:42:58.752Z,3.75
2023-03-06T06:45:25.157Z,3.13
2023-03-06T06:47:51.954Z,2.42
2023-03-06T06:50:18.599Z,2.83
2023-03-06T06:52:45.121Z,4.65
2023-03-06T06:55:12.166Z,1.52
2023-03-06T06:57:39.588Z,1.58
2023-03-06T07:00:06.264Z,3.60
2023-03-06T07:02:33.056Z,1.33
2023-03-06T07:05:04.967Z,1.50
2023-03-06T07:07:33.721Z,1.98
2023-03-06T07:10:00.125Z,2.17
2023-03-06T07:12:26.489Z,2.15
2023-03-06T07:14:52.792Z,1.63
2023-03-06T07:17:19.288Z,1.60
2023-03-06T07:19:45.683Z,2.65
2023-03-06T07:22:12.322Z,4.03
2023-03-06T07:24:38.673Z,1.25
2023-03-06T07:27:07.884Z,2.00
2023-03-06T07:29:34.540Z,1.40
2023-03-06T07:32:01.052Z,4.55
2023-03-06T07:34:27.516Z,2.40
2023-03-06T07:36:53.943Z,2.17
2023-03-06T07:39:20.626Z,2.35
2023-03-06T07:41:46.975Z,2.03
2023-03-06T07:44:13.398Z,2.60
2023-03-06T07:46:39.945Z,1.40
2023-03-06T07:49:06.406Z,1.50
2023-03-06T07:51:32.844Z,0.75
2023-03-06T07:53:59.217Z,1.60
2023-03-06T07:56:25.935Z,1.05
2023-03-06T07:58:52.327Z,1.52
2023-03-06T08:01:19.995Z,1.30
2023-03-06T08:03:47.054Z,3.83
2023-03-06T08:06:15.169Z,2.13
2023-03-06T08:08:42.916Z,1.35
2023-03-06T08:11:10.298Z,1.73
2023-03-06T08:13:36.838Z,1.02
2023-03-06T08:16:03.268Z,1.05
2023-03-06T08:18:29.820Z,0.70
2023-03-06T08:21:10.250Z,1.65
2023-03-06T08:23:36.971Z,1.25
2023-03-06T08:26:06.459Z,0.82
2023-03-06T08:28:32.966Z,0.82
2023-03-06T08:31:07.086Z,3.03
2023-03-06T08:33:33.422Z,0.70
2023-03-06T08:36:01.392Z,2.85
2023-03-06T08:38:28.668Z,0.80
2023-03-06T08:40:55.025Z,4.05
2023-03-06T08:43:21.400Z,3.78
2023-03-06T08:45:55.197Z,4.50
2023-03-06T08:48:21.596Z,1.00
2023-03-06T08:50:48.107Z,1.40
2023-03-06T08:53:15.905Z,0.70
2023-03-06T08:55:43.335Z,0.80
2023-03-06T08:58:09.736Z,1.00
2023-03-06T09:00:36.679Z,1.33
2023-03-06T09:03:03.611Z,2.00
2023-03-06T09:05:30.002Z,1.73
2023-03-06T09:07:56.526Z,2.17
2023-03-06T09:10:24.263Z,0.60
2023-03-06T09:12:53.780Z,0.77
2023-03-06T09:15:21.893Z,3.22
2023-03-06T09:17:48.482Z,0.88
2023-03-06T09:20:15.165Z,0.73
2023-03-06T09:22:45.569Z,1.55
2023-03-06T09:25:20.286Z,1.27
2023-03-06T09:27:51.423Z,1.25
2023-03-06T09:30:22.028Z,2.22
2023-03-06T09:32:48.509Z,5.20
2023-03-06T09:35:14.940Z,1.00
2023-03-06T09:37:41.837Z,1.20
2023-03-06T09:40:14.557Z,0.90
2023-03-06T09:42:40.962Z,1.23
2023-03-06T09:45:07.398Z,1.15
2023-03-06T09:47:52.285Z,0.80
2023-03-06T09:50:18.579Z,4.03
2023-03-06T09:53:12.088Z,0.60
2023-03-06T09:55:40.045Z,1.95
2023-03-06T09:58:18.500Z,1.10
2023-03-06T10:00:50.762Z,0.90
2023-03-06T10:03:26.129Z,5.53
2023-03-06T10:05:59.286Z,1.05
2023-03-06T10:08:48.439Z,2.75
2023-03-06T10:11:17.164Z,0.70
2023-03-06T10:13:45.741Z,0.82
2023-03-06T10:16:28.907Z,1.10
2023-03-06T10:18:56.358Z,1.10
2023-03-06T10:21:25.603Z,1.83
2023-03-06T10:23:53.768Z,1.65
2023-03-06T10:26:22.663Z,0.60
2023-03-06T10:28:55.034Z,0.65
2023-03-06T10:31:28.026Z,1.80
2023-03-06T10:33:54.384Z,1.90
2023-03-06T10:36:22.353Z,1.60
2023-03-06T10:38:50.171Z,0.47
2023-03-06T10:41:21.291Z,1.08
2023-03-06T10:43:59.509Z,1.35
2023-03-06T10:46:27.690Z,0.60
2023-03-06T10:48:59.266Z,0.75
2023-03-06T10:51:27.101Z,1.48
2023-03-06T10:53:54.805Z,4.38
2023-03-06T10:56:32.831Z,2.08
2023-03-06T10:59:07.568Z,1.60
2023-03-06T11:01:34.097Z,2.30
2023-03-06T11:04:15.617Z,1.17
2023-03-06T11:06:42.094Z,2.55
2023-03-06T11:09:26.283Z,0.68
2023-03-06T11:11:53.653Z,0.82
2023-03-06T11:14:22.879Z,1.65
2023-03-06T11:16:53.318Z,1.25
2023-03-06T11:19:26.466Z,2.25
2023-03-06T11:22:04.389Z,0.85
2023-03-06T11:24:39.486Z,1.73
2023-03-06T11:27:17.832Z,1.63
2023-03-06T11:29:46.724Z,1.92
2023-03-06T11:32:28.951Z,1.75
2023-03-06T11:35:06.448Z,2.23
2023-03-06T11:37:53.868Z,2.25
2023-03-06T11:40:20.223Z,1.27
2023-03-06T11:43:04.689Z,0.93
2023-03-06T11:45:37.184Z,0.95
2023-03-06T11:48:17.337Z,2.78
2023-03-06T11:50:46.498Z,1.13
2023-03-06T11:53:20.258Z,3.30
2023-03-06T11:55:48.643Z,0.80
2023-03-06T11:58:23.865Z,1.67
2023-03-06T12:00:58.088Z,2.58
2023-03-06T12:03:36.581Z,1.17
2023-03-06T12:06:24.804Z,2.22
2023-03-06T12:08:54.095Z,2.30
2023-03-06T12:11:23.089Z,1.00
2023-03-06T12:16:40.015Z,3.00
2023-03-06T12:19:15.256Z,0.90
2023-03-06T12:21:47.706Z,1.85
2023-03-06T12:24:33.014Z,2.65
2023-03-06T12:27:05.062Z,1.77
2023-03-06T12:29:31.484Z,1.70
2023-03-06T12:32:17.609Z,3.35
2023-03-06T12:35:05.742Z,2.47
2023-03-06T12:37:50.891Z,1.75
2023-03-06T12:40:21.937Z,1.88
2023-03-06T12:43:05.969Z,1.98
2023-03-06T12:45:37.032Z,2.28
2023-03-06T12:48:04.685Z,2.83
2023-03-06T12:50:37.011Z,3.15
2023-03-06T12:53:05.582Z,2.10
2023-03-06T12:55:38.615Z,2.00
2023-03-06T12:58:34.170Z,3.08
2023-03-06T13:01:24.106Z,2.72
2023-03-06T13:03:59.789Z,1.77
2023-03-06T13:06:32.441Z,1.80
2023-03-06T13:09:12.076Z,3.08
2023-03-06T13:11:50.781Z,3.08
2023-03-06T13:14:23.272Z,2.63
2023-03-06T13:16:50.044Z,5.82
2023-03-06T13:19:19.245Z,2.95
2023-03-06T13:21:54.802Z,2.40
2023-03-06T13:24:28.252Z,3.20
2023-03-06T13:26:57.715Z,2.88
2023-03-06T13:29:36.111Z,3.15
2023-03-06T13:32:02.572Z,2.88
2023-03-06T13:34:31.682Z,3.53
2023-03-06T13:37:13.327Z,5.15
2023-03-06T13:39:54.742Z,5.28
2023-03-06T13:42:35.257Z,4.72
2023-03-06T13:45:08.619Z,4.88
2023-03-06T13:48:03.164Z,6.82
2023-03-06T13:50:27.827Z,5.53
2023-03-06T13:53:12.823Z,5.85
2023-03-06T13:55:51.177Z,4.90
2023-03-06T13:58:43.814Z,5.93
2023-03-06T14:01:27.319Z,7.10
2023-03-06T14:04:16.581Z,6.05
2023-03-06T14:06:51.188Z,6.22
2023-03-06T14:09:28.376Z,5.47
2023-03-06T14:11:57.762Z,8.77
2023-03-06T14:14:53.255Z,7.22
2023-03-06T14:17:37.580Z,7.20
2023-03-06T14:20:24.681Z,10.48
2023-03-06T14:22:51.054Z,10.20
2023-03-06T14:25:20.542Z,6.78
2023-03-06T14:27:50.503Z,7.30
2023-03-06T14:30:18.621Z,7.78
2023-03-06T14:32:45.069Z,10.15
2023-03-06T14:35:19.987Z,5.80
2023-03-06T14:37:48.286Z,7.30
2023-03-06T14:40:19.704Z,6.97
2023-03-06T14:42:46.028Z,5.90
2023-03-06T14:45:16.966Z,4.03
2023-03-06T14:47:43.676Z,3.90
2023-03-06T14:50:19.388Z,4.97
2023-03-06T14:52:46.066Z,8.10
2023-03-06T14:55:16.752Z,5.32
2023-03-06T14:57:43.322Z,3.85
2023-03-06T15:00:20.463Z,3.45
2023-03-06T15:02:47.520Z,3.47
2023-03-06T15:05:24.702Z,4.13
2023-03-06T15:07:52.726Z,4.60
2023-03-06T15:10:20.579Z,4.50
2023-03-06T15:12:46.975Z,4.80
2023-03-06T15:15:13.431Z,5.13
2023-03-06T15:17:40.006Z,5.28
2023-03-06T15:20:11.339Z,5.50
2023-03-06T15:22:41.029Z,4.90
2023-03-06T15:25:13.332Z,4.97
2023-03-06T15:27:39.855Z,6.15
2023-03-06T15:30:22.664Z,6.28
2023-03-06T15:32:48.998Z,3.90
2023-03-06T15:35:25.314Z,4.35
2023-03-06T15:37:52.264Z,6.18
2023-03-06T15:40:26.119Z,4.68
2023-03-06T15:42:52.508Z,4.90
2023-03-06T15:45:19.930Z,6.10
2023-03-06T15:47:47.846Z,5.20
2023-03-06T15:50:15.703Z,4.70
2023-03-06T15:52:42.415Z,4.13
2023-03-06T15:55:11.091Z,6.18
2023-03-06T15:57:37.678Z,5.93
2023-03-06T16:00:04.347Z,5.35
2023-03-06T16:02:37.858Z,14.05
2023-03-06T16:05:10.305Z,4.50
2023-03-06T16:07:36.623Z,6.30
2023-03-06T16:10:03.447Z,7.97
2023-03-06T16:12:30.300Z,9.65
2023-03-06T16:14:57.079Z,8.90
2023-03-06T16:17:23.424Z,11.65
2023-03-06T16:19:49.789Z,10.55
2023-03-06T16:22:16.126Z,9.85
2023-03-06T16:24:43.187Z,16.35
2023-03-06T16:27:14.973Z,15.77
2023-03-06T16:29:41.286Z,17.27
2023-03-06T16:32:10.402Z,15.27
2023-03-06T16:34:36.843Z,17.52
2023-03-06T16:37:03.253Z,22.33
2023-03-06T16:39:29.605Z,19.92
2023-03-06T16:41:56.038Z,23.45
2023-03-06T16:44:22.435Z,20.88
2023-03-06T16:46:49.657Z,18.50
2023-03-06T16:49:17.137Z,22.83
2023-03-06T16:51:43.974Z,17.00
2023-03-06T16:54:10.364Z,20.23
2023-03-06T16:56:36.665Z,29.33
2023-03-06T16:59:03.072Z,21.27
2023-03-06T17:01:29.528Z,22.88
2023-03-06T17:03:56.021Z,24.98
2023-03-06T17:06:22.800Z,24.63
2023-03-06T17:08:49.774Z,22.27
2023-03-06T17:11:16.393Z,24.65
2023-03-06T17:13:42.757Z,21.67
2023-03-06T17:16:12.771Z,23.42
2023-03-06T17:18:41.933Z,24.15
2023-03-06T17:21:08.552Z,24.00
2023-03-06T17:23:37.802Z,20.63
2023-03-06T17:26:11.584Z,23.85
2023-03-06T17:28:38.454Z,21.98
2023-03-06T17:31:12.126Z,22.33
2023-03-06T17:33:38.516Z,20.75
2023-03-06T17:36:06.527Z,23.77
2023-03-06T17:38:32.931Z,22.08
2023-03-06T17:41:03.777Z,23.48
2023-03-06T17:43:30.523Z,23.08
2023-03-06T17:45:56.848Z,22.45
2023-03-06T17:48:23.252Z,21.77
2023-03-06T17:50:53.547Z,19.80
2023-03-06T17:53:19.932Z,22.33
2023-03-06T17:55:46.386Z,20.08
2023-03-06T17:58:13.382Z,16.80
2023-03-06T18:00:42.295Z,21.08
2023-03-06T18:03:09.624Z,22.13
2023-03-06T18:05:36.668Z,19.98
2023-03-06T18:08:03.475Z,22.95
2023-03-06T18:10:29.872Z,18.35
2023-03-06T18:12:59.009Z,21.63
2023-03-06T18:15:27.932Z,28.10
2023-03-06T18:17:56.398Z,16.58
2023-03-06T18:20:22.768Z,28.20
2023-03-06T18:22:49.140Z,23.48
2023-03-06T18:25:17.488Z,24.92
2023-03-06T18:27:43.974Z,25.98
2023-03-06T18:30:10.692Z,24.60
2023-03-06T18:32:37.070Z,25.70
2023-03-06T18:35:05.091Z,16.42
2023-03-06T18:37:31.821Z,27.27
2023-03-06T18:39:58.387Z,30.98
2023-03-06T18:42:26.176Z,31.70
2023-03-06T18:44:52.514Z,28.08
2023-03-06T18:47:19.143Z,30.25
2023-03-06T18:49:45.943Z,30.83
2023-03-06T18:52:12.877Z,32.22
2023-03-06T18:54:39.348Z,29.20
2023-03-06T18:57:07.034Z,30.00
2023-03-06T18:59:33.462Z,30.58
2023-03-06T19:01:59.782Z,29.48
2023-03-06T19:04:26.639Z,28.50
2023-03-06T19:06:54.548Z,30.00
2023-03-06T19:09:21.355Z,29.67
2023-03-06T19:11:48.753Z,33.25
2023-03-06T19:14:15.762Z,31.58
2023-03-06T19:16:42.251Z,26.25
2023-03-06T19:19:11.637Z,34.95
2023-03-06T19:21:37.967Z,28.65
2023-03-06T19:24:04.595Z,32.47
2023-03-06T19:26:31.393Z,30.13
2023-03-06T19:28:57.803Z,29.58
2023-03-06T19:31:26.160Z,33.08
2023-03-06T19:33:53.551Z,31.35
2023-03-06T19:36:25.344Z,35.58
2023-03-06T19:38:55.634Z,31.45
2023-03-06T19:41:22.076Z,34.22
2023-03-06T19:43:50.073Z,36.20
2023-03-06T19:46:16.503Z,32.97
2023-03-06T19:48:43.537Z,37.75
2023-03-06T19:51:10.575Z,35.15
2023-03-06T19:53:37.734Z,35.78
2023-03-06T19:56:08.327Z,38.40
2023-03-06T19:58:36.819Z,32.30
2023-03-06T20:01:04.674Z,36.28
2023-03-06T20:03:31.009Z,39.17
2023-03-06T20:05:57.409Z,38.75
2023-03-06T20:08:23.744Z,41.63
2023-03-06T20:10:50.091Z,40.90
2023-03-06T20:13:16.411Z,47.13
2023-03-06T20:15:42.821Z,41.78
2023-03-06T20:18:09.292Z,50.75
2023-03-06T20:20:37.742Z,44.63
2023-03-06T20:23:04.603Z,42.03
2023-03-06T20:25:31.194Z,40.00
2023-03-06T20:27:57.581Z,42.92
2023-03-06T20:30:26.401Z,42.75
2023-03-06T20:32:57.321Z,36.58
2023-03-06T20:35:23.771Z,39.35
2023-03-06T20:37:50.132Z,49.08
2023-03-06T20:40:21.920Z,44.35
2023-03-06T20:42:48.639Z,53.57
2023-03-06T20:45:15.512Z,46.53
2023-03-06T20:47:47.000Z,43.45
2023-03-06T20:50:14.357Z,43.30
2023-03-06T20:52:40.834Z,41.13
2023-03-06T20:55:07.360Z,39.17
2023-03-06T20:57:35.686Z,38.42
2023-03-06T21:00:02.500Z,42.90
2023-03-06T21:02:40.984Z,40.85
2023-03-06T21:05:07.616Z,41.65
2023-03-06T21:07:36.716Z,44.28
2023-03-06T21:10:03.692Z,42.90
2023-03-06T21:12:31.520Z,41.58
2023-03-06T21:14:59.415Z,40.75
2023-03-06T21:17:25.728Z,44.42
2023-03-06T21:19:52.755Z,45.03
2023-03-06T21:22:21.898Z,32.97
2023-03-06T21:24:55.024Z,38.70
2023-03-06T21:27:26.797Z,39.05
2023-03-06T21:29:57.908Z,43.45
2023-03-06T21:32:24.258Z,39.80
2023-03-06T21:34:50.590Z,36.30
2023-03-06T21:37:16.967Z,41.10
2023-03-06T21:39:43.547Z,37.25
2023-03-06T21:42:09.881Z,43.13
2023-03-06T21:44:36.525Z,37.65
2023-03-06T21:47:04.904Z,35.30
2023-03-06T21:49:32.213Z,31.63
2023-03-06T21:51:58.643Z,36.30
2023-03-06T21:54:29.183Z,30.27
2023-03-06T21:56:55.671Z,28.65
2023-03-06T21:59:25.217Z,18.40
2023-03-06T22:01:53.714Z,21.33
2023-03-06T22:04:21.468Z,21.50
2023-03-06T22:06:47.831Z,16.88
2023-03-06T22:09:16.131Z,13.40
2023-03-06T22:11:50.276Z,20.67
2023-03-06T22:14:16.689Z,19.58
2023-03-06T22:16:43.123Z,16.60
2023-03-06T22:19:09.487Z,19.45
2023-03-06T22:21:35.825Z,13.27
2023-03-06T22:24:02.287Z,17.88
2023-03-06T22:26:30.443Z,17.23
2023-03-06T22:28:57.130Z,13.75
2023-03-06T22:31:25.456Z,15.10
2023-03-06T22:33:52.995Z,13.15
2023-03-06T22:36:19.886Z,11.52
2023-03-06T22:38:48.591Z,17.15
2023-03-06T22:41:16.356Z,12.90
2023-03-06T22:43:43.264Z,12.70
2023-03-06T22:46:11.746Z,10.35
2023-03-06T22:48:38.170Z,12.52
2023-03-06T22:51:09.356Z,9.60
2023-03-06T22:53:35.800Z,11.55
2023-03-06T22:56:03.529Z,10.35
2023-03-06T22:58:34.423Z,9.35
2023-03-06T23:01:11.150Z,12.57
2023-03-06T23:03:39.510Z,8.73
2023-03-06T23:06:38.044Z,8.10
2023-03-06T23:09:08.735Z,7.55
2023-03-06T23:11:54.468Z,7.72
2023-03-06T23:14:39.393Z,6.60
2023-03-06T23:17:24.825Z,8.70
2023-03-06T23:20:10.233Z,8.40
2023-03-06T23:22:54.991Z,9.65
2023-03-06T23:25:39.716Z,7.45
2023-03-06T23:28:09.243Z,13.15
2023-03-06T23:30:37.873Z,7.82
2023-03-06T23:33:04.977Z,10.80
2023-03-06T23:35:32.464Z,14.13
2023-03-06T23:37:59.920Z,5.90
2023-03-06T23:40:27.228Z,10.45
2023-03-06T23:42:53.619Z,6.93
2023-03-06T23:45:20.025Z,10.35
2023-03-06T23:47:46.332Z,17.88
2023-03-06T23:50:12.680Z,17.33
2023-03-06T23:52:39.002Z,14.27
2023-03-06T23:55:05.837Z,10.38
2023-03-06T23:57:32.561Z,13.60
2023-03-06T23:59:58.979Z,11.30
